sensor_id;sensor_type;location;lat;lon;timestamp;P1;durP1;ratioP1;P2;durP2;ratioP2
22764;SDS011;11549;50.852;3.816;2023-02-07T00:01:34;37.83;;;15.32;;
22764;SDS011;11549;50.852;3.816;2023-02-07T00:04:02;40.92;;;15.73;;
22764;SDS011;11549;50.852;3.816;2023-02-07T00:06:32;32.97;;;15.10;;
22764;SDS011;11549;50.852;3.816;2023-02-07T00:09:04;35.55;;;16.30;;
22764;SDS011;11549;50.852;3.816;2023-02-07T00:11:34;36.80;;;16.30;;
22764;SDS011;11549;50.852;3.816;2023-02-07T00:14:07;28.90;;;16.38;;
22764;SDS011;11549;50.852;3.816;2023-02-07T00:16:37;36.97;;;17.27;;
22764;SDS011;11549;50.852;3.816;2023-02-07T00:19:06;38.25;;;16.75;;
22764;SDS011;11549;50.852;3.816;2023-02-07T00:21:34;37.58;;;16.45;;
22764;SDS011;11549;50.852;3.816;2023-02-07T00:24:03;35.80;;;16.13;;
22764;SDS011;11549;50.852;3.816;2023-02-07T00:26:32;38.88;;;17.08;;
22764;SDS011;11549;50.852;3.816;2023-02-07T00:29:01;44.13;;;16.55;;
22764;SDS011;11549;50.852;3.816;2023-02-07T00:31:31;41.90;;;17.35;;
22764;SDS011;11549;50.852;3.816;2023-02-07T00:34:02;40.72;;;17.88;;
22764;SDS011;11549;50.852;3.816;2023-02-07T00:36:32;40.05;;;17.02;;
22764;SDS011;11549;50.852;3.816;2023-02-07T00:39:03;42.63;;;17.08;;
22764;SDS011;11549;50.852;3.816;2023-02-07T00:41:33;34.28;;;15.90;;
22764;SDS011;11549;50.852;3.816;2023-02-07T00:44:03;35.20;;;17.80;;
22764;SDS011;11549;50.852;3.816;2023-02-07T00:46:32;44.05;;;17.60;;
22764;SDS011;11549;50.852;3.816;2023-02-07T00:49:01;42.03;;;17.73;;
22764;SDS011;11549;50.852;3.816;2023-02-07T00:51:29;31.17;;;15.75;;
22764;SDS011;11549;50.852;3.816;2023-02-07T00:53:58;36.78;;;17.40;;
22764;SDS011;11549;50.852;3.816;2023-02-07T00:56:27;39.45;;;18.20;;
22764;SDS011;11549;50.852;3.816;2023-02-07T00:58:57;38.40;;;17.25;;
22764;SDS011;11549;50.852;3.816;2023-02-07T01:01:27;32.95;;;18.65;;
22764;SDS011;11549;50.852;3.816;2023-02-07T01:03:56;39.00;;;17.85;;
22764;SDS011;11549;50.852;3.816;2023-02-07T01:06:25;41.58;;;18.25;;
22764;SDS011;11549;50.852;3.816;2023-02-07T01:08:55;40.05;;;18.10;;
22764;SDS011;11549;50.852;3.816;2023-02-07T01:11:24;44.17;;;18.70;;
22764;SDS011;11549;50.852;3.816;2023-02-07T01:13:53;45.97;;;19.55;;
22764;SDS011;11549;50.852;3.816;2023-02-07T01:16:23;44.20;;;19.17;;
22764;SDS011;11549;50.852;3.816;2023-02-07T01:18:59;38.08;;;19.15;;
22764;SDS011;11549;50.852;3.816;2023-02-07T01:21:28;44.88;;;19.08;;
22764;SDS011;11549;50.852;3.816;2023-02-07T01:23:57;47.05;;;19.80;;
22764;SDS011;11549;50.852;3.816;2023-02-07T01:26:25;41.20;;;19.42;;
22764;SDS011;11549;50.852;3.816;2023-02-07T01:28:54;39.58;;;19.25;;
22764;SDS011;11549;50.852;3.816;2023-02-07T01:31:23;43.50;;;19.48;;
22764;SDS011;11549;50.852;3.816;2023-02-07T01:33:52;41.50;;;20.00;;
22764;SDS011;11549;50.852;3.816;2023-02-07T01:36:23;44.13;;;19.85;;
22764;SDS011;11549;50.852;3.816;2023-02-07T01:38:53;41.40;;;19.42;;
22764;SDS011;11549;50.852;3.816;2023-02-07T01:41:22;49.42;;;21.27;;
22764;SDS011;11549;50.852;3.816;2023-02-07T01:43:52;42.00;;;19.88;;
22764;SDS011;11549;50.852;3.816;2023-02-07T01:46:22;45.15;;;20.58;;
22764;SDS011;11549;50.852;3.816;2023-02-07T01:48:51;42.45;;;20.75;;
22764;SDS011;11549;50.852;3.816;2023-02-07T01:51:23;38.08;;;20.25;;
22764;SDS011;11549;50.852;3.816;2023-02-07T01:53:53;46.75;;;20.85;;
22764;SDS011;11549;50.852;3.816;2023-02-07T01:56:26;47.03;;;21.60;;
22764;SDS011;11549;50.852;3.816;2023-02-07T01:58:57;42.88;;;21.25;;
22764;SDS011;11549;50.852;3.816;2023-02-07T02:01:27;43.10;;;21.17;;
22764;SDS011;11549;50.852;3.816;2023-02-07T02:03:56;50.53;;;22.15;;
22764;SDS011;11549;50.852;3.816;2023-02-07T02:06:26;44.97;;;22.17;;
22764;SDS011;11549;50.852;3.816;2023-02-07T02:08:58;42.80;;;21.47;;
22764;SDS011;11549;50.852;3.816;2023-02-07T02:14:33;51.00;;;24.15;;
22764;SDS011;11549;50.852;3.816;2023-02-07T02:17:20;44.67;;;21.48;;
22764;SDS011;11549;50.852;3.816;2023-02-07T02:20:02;46.33;;;22.63;;
22764;SDS011;11549;50.852;3.816;2023-02-07T02:22:57;51.30;;;22.88;;
22764;SDS011;11549;50.852;3.816;2023-02-07T02:25:39;49.88;;;23.75;;
22764;SDS011;11549;50.852;3.816;2023-02-07T02:28:40;51.28;;;24.92;;
22764;SDS011;11549;50.852;3.816;2023-02-07T02:31:37;51.97;;;23.90;;
22764;SDS011;11549;50.852;3.816;2023-02-07T02:34:29;49.50;;;23.45;;
22764;SDS011;11549;50.852;3.816;2023-02-07T02:37:02;59.83;;;25.77;;
22764;SDS011;11549;50.852;3.816;2023-02-07T02:39:39;53.42;;;23.40;;
22764;SDS011;11549;50.852;3.816;2023-02-07T02:42:14;48.95;;;23.58;;
22764;SDS011;11549;50.852;3.816;2023-02-07T02:44:46;49.58;;;24.23;;
22764;SDS011;11549;50.852;3.816;2023-02-07T02:47:19;57.85;;;26.50;;
22764;SDS011;11549;50.852;3.816;2023-02-07T02:49:50;62.88;;;25.27;;
22764;SDS011;11549;50.852;3.816;2023-02-07T02:52:19;59.17;;;25.38;;
22764;SDS011;11549;50.852;3.816;2023-02-07T02:54:47;55.13;;;24.80;;
22764;SDS011;11549;50.852;3.816;2023-02-07T03:00:19;53.65;;;25.08;;
22764;SDS011;11549;50.852;3.816;2023-02-07T03:03:15;54.25;;;26.13;;
22764;SDS011;11549;50.852;3.816;2023-02-07T03:06:06;51.05;;;24.88;;
22764;SDS011;11549;50.852;3.816;2023-02-07T03:08:44;53.97;;;25.02;;
22764;SDS011;11549;50.852;3.816;2023-02-07T03:11:20;50.55;;;25.20;;
22764;SDS011;11549;50.852;3.816;2023-02-07T03:13:53;52.58;;;24.48;;
22764;SDS011;11549;50.852;3.816;2023-02-07T03:16:27;52.78;;;24.98;;
22764;SDS011;11549;50.852;3.816;2023-02-07T03:19:00;55.60;;;25.13;;
22764;SDS011;11549;50.852;3.816;2023-02-07T03:21:37;51.70;;;25.17;;
22764;SDS011;11549;50.852;3.816;2023-02-07T03:24:11;56.53;;;25.40;;
22764;SDS011;11549;50.852;3.816;2023-02-07T03:26:42;57.63;;;27.15;;
22764;SDS011;11549;50.852;3.816;2023-02-07T03:29:12;61.60;;;27.75;;
22764;SDS011;11549;50.852;3.816;2023-02-07T03:31:44;54.25;;;26.52;;
22764;SDS011;11549;50.852;3.816;2023-02-07T03:34:17;55.80;;;26.17;;
22764;SDS011;11549;50.852;3.816;2023-02-07T03:36:52;51.08;;;25.60;;
22764;SDS011;11549;50.852;3.816;2023-02-07T03:39:24;59.05;;;27.20;;
22764;SDS011;11549;50.852;3.816;2023-02-07T03:41:54;57.45;;;26.63;;
22764;SDS011;11549;50.852;3.816;2023-02-07T03:44:26;52.70;;;26.13;;
22764;SDS011;11549;50.852;3.816;2023-02-07T03:46:57;53.35;;;26.40;;
22764;SDS011;11549;50.852;3.816;2023-02-07T03:49:26;62.08;;;26.38;;
22764;SDS011;11549;50.852;3.816;2023-02-07T03:51:56;57.35;;;26.42;;
22764;SDS011;11549;50.852;3.816;2023-02-07T03:54:24;59.13;;;27.65;;
22764;SDS011;11549;50.852;3.816;2023-02-07T03:56:53;63.67;;;27.60;;
22764;SDS011;11549;50.852;3.816;2023-02-07T03:59:21;56.88;;;27.65;;
22764;SDS011;11549;50.852;3.816;2023-02-07T04:01:50;68.72;;;29.75;;
22764;SDS011;11549;50.852;3.816;2023-02-07T04:04:18;68.25;;;29.50;;
22764;SDS011;11549;50.852;3.816;2023-02-07T04:06:47;60.65;;;27.10;;
22764;SDS011;11549;50.852;3.816;2023-02-07T04:09:17;58.88;;;27.13;;
22764;SDS011;11549;50.852;3.816;2023-02-07T04:11:47;57.70;;;27.75;;
22764;SDS011;11549;50.852;3.816;2023-02-07T04:14:16;58.13;;;26.70;;
22764;SDS011;11549;50.852;3.816;2023-02-07T04:16:46;62.97;;;30.92;;
22764;SDS011;11549;50.852;3.816;2023-02-07T04:19:15;75.65;;;31.60;;
22764;SDS011;11549;50.852;3.816;2023-02-07T04:21:43;68.00;;;32.28;;
22764;SDS011;11549;50.852;3.816;2023-02-07T04:24:12;65.07;;;30.33;;
22764;SDS011;11549;50.852;3.816;2023-02-07T04:26:42;88.50;;;34.05;;
22764;SDS011;11549;50.852;3.816;2023-02-07T04:29:10;77.35;;;33.38;;
22764;SDS011;11549;50.852;3.816;2023-02-07T04:31:39;81.68;;;33.83;;
22764;SDS011;11549;50.852;3.816;2023-02-07T04:34:08;85.05;;;33.08;;
22764;SDS011;11549;50.852;3.816;2023-02-07T04:36:38;73.07;;;34.40;;
22764;SDS011;11549;50.852;3.816;2023-02-07T04:39:06;65.47;;;33.03;;
22764;SDS011;11549;50.852;3.816;2023-02-07T04:41:35;95.38;;;33.33;;
22764;SDS011;11549;50.852;3.816;2023-02-07T04:44:05;231.55;;;40.20;;
22764;SDS011;11549;50.852;3.816;2023-02-07T04:46:34;99.43;;;35.75;;
22764;SDS011;11549;50.852;3.816;2023-02-07T04:49:02;98.40;;;35.70;;
22764;SDS011;11549;50.852;3.816;2023-02-07T04:51:31;82.43;;;34.10;;
22764;SDS011;11549;50.852;3.816;2023-02-07T04:53:59;97.53;;;34.85;;
22764;SDS011;11549;50.852;3.816;2023-02-07T04:56:28;79.65;;;34.63;;
22764;SDS011;11549;50.852;3.816;2023-02-07T04:58:56;72.55;;;32.88;;
22764;SDS011;11549;50.852;3.816;2023-02-07T05:01:26;75.07;;;33.10;;
22764;SDS011;11549;50.852;3.816;2023-02-07T05:03:54;79.35;;;33.05;;
22764;SDS011;11549;50.852;3.816;2023-02-07T05:06:23;99.05;;;33.45;;
22764;SDS011;11549;50.852;3.816;2023-02-07T05:08:51;95.93;;;33.97;;
22764;SDS011;11549;50.852;3.816;2023-02-07T05:11:20;97.50;;;34.03;;
22764;SDS011;11549;50.852;3.816;2023-02-07T05:13:48;171.25;;;36.30;;
22764;SDS011;11549;50.852;3.816;2023-02-07T05:16:17;83.10;;;33.95;;
22764;SDS011;11549;50.852;3.816;2023-02-07T05:18:47;78.75;;;32.75;;
22764;SDS011;11549;50.852;3.816;2023-02-07T05:21:15;79.68;;;31.83;;
22764;SDS011;11549;50.852;3.816;2023-02-07T05:23:43;107.05;;;32.33;;
22764;SDS011;11549;50.852;3.816;2023-02-07T05:26:12;125.63;;;34.28;;
22764;SDS011;11549;50.852;3.816;2023-02-07T05:28:42;114.43;;;33.47;;
22764;SDS011;11549;50.852;3.816;2023-02-07T05:31:11;73.95;;;31.73;;
22764;SDS011;11549;50.852;3.816;2023-02-07T05:33:39;83.65;;;32.90;;
22764;SDS011;11549;50.852;3.816;2023-02-07T05:36:08;66.80;;;31.23;;
22764;SDS011;11549;50.852;3.816;2023-02-07T05:38:37;90.18;;;33.38;;
22764;SDS011;11549;50.852;3.816;2023-02-07T05:41:05;82.63;;;33.30;;
22764;SDS011;11549;50.852;3.816;2023-02-07T05:43:33;55.78;;;30.23;;
22764;SDS011;11549;50.852;3.816;2023-02-07T05:46:02;83.43;;;32.92;;
22764;SDS011;11549;50.852;3.816;2023-02-07T05:48:31;106.85;;;33.10;;
22764;SDS011;11549;50.852;3.816;2023-02-07T05:50:59;65.38;;;31.63;;
22764;SDS011;11549;50.852;3.816;2023-02-07T05:53:29;86.70;;;33.47;;
22764;SDS011;11549;50.852;3.816;2023-02-07T05:55:57;80.40;;;31.58;;
22764;SDS011;11549;50.852;3.816;2023-02-07T05:58:25;78.30;;;32.22;;
22764;SDS011;11549;50.852;3.816;2023-02-07T06:00:54;74.47;;;32.20;;
22764;SDS011;11549;50.852;3.816;2023-02-07T06:03:22;141.63;;;33.95;;
22764;SDS011;11549;50.852;3.816;2023-02-07T06:05:51;63.17;;;30.60;;
22764;SDS011;11549;50.852;3.816;2023-02-07T06:08:19;77.15;;;31.45;;
22764;SDS011;11549;50.852;3.816;2023-02-07T06:10:49;194.60;;;40.58;;
22764;SDS011;11549;50.852;3.816;2023-02-07T06:13:17;74.45;;;32.92;;
22764;SDS011;11549;50.852;3.816;2023-02-07T06:15:46;68.90;;;30.75;;
22764;SDS011;11549;50.852;3.816;2023-02-07T06:18:14;168.93;;;47.83;;
22764;SDS011;11549;50.852;3.816;2023-02-07T06:20:43;134.20;;;44.72;;
22764;SDS011;11549;50.852;3.816;2023-02-07T06:23:11;129.35;;;32.40;;
22764;SDS011;11549;50.852;3.816;2023-02-07T06:25:39;102.00;;;32.15;;
22764;SDS011;11549;50.852;3.816;2023-02-07T06:28:09;69.43;;;28.55;;
22764;SDS011;11549;50.852;3.816;2023-02-07T06:30:38;229.82;;;36.13;;
22764;SDS011;11549;50.852;3.816;2023-02-07T06:33:07;103.22;;;31.75;;
22764;SDS011;11549;50.852;3.816;2023-02-07T06:35:35;76.53;;;31.10;;
22764;SDS011;11549;50.852;3.816;2023-02-07T06:38:04;140.05;;;35.05;;
22764;SDS011;11549;50.852;3.816;2023-02-07T06:40:32;78.13;;;32.30;;
22764;SDS011;11549;50.852;3.816;2023-02-07T06:43:00;197.95;;;36.63;;
22764;SDS011;11549;50.852;3.816;2023-02-07T06:45:30;66.28;;;29.10;;
22764;SDS011;11549;50.852;3.816;2023-02-07T06:47:58;119.18;;;30.70;;
22764;SDS011;11549;50.852;3.816;2023-02-07T06:50:27;194.00;;;35.15;;
22764;SDS011;11549;50.852;3.816;2023-02-07T06:52:55;58.50;;;28.50;;
22764;SDS011;11549;50.852;3.816;2023-02-07T06:55:27;132.40;;;32.30;;
22764;SDS011;11549;50.852;3.816;2023-02-07T06:57:55;122.35;;;33.33;;
22764;SDS011;11549;50.852;3.816;2023-02-07T07:00:24;178.60;;;34.70;;
22764;SDS011;11549;50.852;3.816;2023-02-07T07:02:54;88.25;;;30.00;;
22764;SDS011;11549;50.852;3.816;2023-02-07T07:05:22;123.65;;;31.15;;
22764;SDS011;11549;50.852;3.816;2023-02-07T07:07:51;131.07;;;31.10;;
22764;SDS011;11549;50.852;3.816;2023-02-07T07:10:19;73.80;;;27.80;;
22764;SDS011;11549;50.852;3.816;2023-02-07T07:12:47;159.90;;;32.85;;
22764;SDS011;11549;50.852;3.816;2023-02-07T07:15:16;124.65;;;31.00;;
22764;SDS011;11549;50.852;3.816;2023-02-07T07:17:44;97.15;;;29.83;;
22764;SDS011;11549;50.852;3.816;2023-02-07T07:20:14;100.80;;;33.33;;
22764;SDS011;11549;50.852;3.816;2023-02-07T07:22:43;246.18;;;35.35;;
22764;SDS011;11549;50.852;3.816;2023-02-07T07:25:11;149.18;;;31.10;;
22764;SDS011;11549;50.852;3.816;2023-02-07T07:27:39;192.43;;;33.10;;
22764;SDS011;11549;50.852;3.816;2023-02-07T07:30:08;59.20;;;27.25;;
22764;SDS011;11549;50.852;3.816;2023-02-07T07:32:37;63.95;;;26.90;;
22764;SDS011;11549;50.852;3.816;2023-02-07T07:35:06;120.28;;;29.83;;
22764;SDS011;11549;50.852;3.816;2023-02-07T07:37:36;110.10;;;29.92;;
22764;SDS011;11549;50.852;3.816;2023-02-07T07:40:07;95.57;;;28.20;;
22764;SDS011;11549;50.852;3.816;2023-02-07T07:42:37;91.60;;;26.17;;
22764;SDS011;11549;50.852;3.816;2023-02-07T07:45:05;55.85;;;26.30;;
22764;SDS011;11549;50.852;3.816;2023-02-07T07:47:35;77.28;;;27.67;;
22764;SDS011;11549;50.852;3.816;2023-02-07T07:50:04;85.72;;;26.25;;
22764;SDS011;11549;50.852;3.816;2023-02-07T07:52:33;49.55;;;25.75;;
22764;SDS011;11549;50.852;3.816;2023-02-07T07:55:03;71.47;;;27.10;;
22764;SDS011;11549;50.852;3.816;2023-02-07T07:57:32;62.08;;;26.30;;
22764;SDS011;11549;50.852;3.816;2023-02-07T08:00:00;77.03;;;26.70;;
22764;SDS011;11549;50.852;3.816;2023-02-07T08:02:29;100.68;;;29.27;;
22764;SDS011;11549;50.852;3.816;2023-02-07T08:04:58;61.78;;;26.50;;
22764;SDS011;11549;50.852;3.816;2023-02-07T08:07:26;103.35;;;27.75;;
22764;SDS011;11549;50.852;3.816;2023-02-07T08:09:55;131.15;;;27.42;;
22764;SDS011;11549;50.852;3.816;2023-02-07T08:12:25;40.30;;;23.50;;
22764;SDS011;11549;50.852;3.816;2023-02-07T08:14:53;41.30;;;23.45;;
22764;SDS011;11549;50.852;3.816;2023-02-07T08:17:22;58.38;;;23.95;;
22764;SDS011;11549;50.852;3.816;2023-02-07T08:19:50;48.33;;;22.20;;
22764;SDS011;11549;50.852;3.816;2023-02-07T08:22:19;48.33;;;23.00;;
22764;SDS011;11549;50.852;3.816;2023-02-07T08:24:47;36.20;;;21.88;;
22764;SDS011;11549;50.852;3.816;2023-02-07T08:27:15;46.03;;;21.58;;
22764;SDS011;11549;50.852;3.816;2023-02-07T08:29:45;34.53;;;20.58;;
22764;SDS011;11549;50.852;3.816;2023-02-07T08:32:13;77.90;;;23.73;;
22764;SDS011;11549;50.852;3.816;2023-02-07T08:34:42;35.13;;;20.58;;
22764;SDS011;11549;50.852;3.816;2023-02-07T08:37:11;62.78;;;21.23;;
22764;SDS011;11549;50.852;3.816;2023-02-07T08:39:39;42.97;;;19.33;;
22764;SDS011;11549;50.852;3.816;2023-02-07T08:42:08;31.35;;;18.38;;
22764;SDS011;11549;50.852;3.816;2023-02-07T08:44:36;33.35;;;17.35;;
22764;SDS011;11549;50.852;3.816;2023-02-07T08:47:06;86.13;;;19.90;;
22764;SDS011;11549;50.852;3.816;2023-02-07T08:49:34;25.77;;;16.58;;
22764;SDS011;11549;50.852;3.816;2023-02-07T08:52:02;27.00;;;16.75;;
22764;SDS011;11549;50.852;3.816;2023-02-07T08:54:31;28.27;;;17.52;;
22764;SDS011;11549;50.852;3.816;2023-02-07T08:57:00;25.73;;;17.75;;
22764;SDS011;11549;50.852;3.816;2023-02-07T08:59:28;38.42;;;18.15;;
22764;SDS011;11549;50.852;3.816;2023-02-07T09:01:57;25.70;;;16.42;;
22764;SDS011;11549;50.852;3.816;2023-02-07T09:04:27;26.65;;;17.20;;
22764;SDS011;11549;50.852;3.816;2023-02-07T09:06:55;28.30;;;16.83;;
22764;SDS011;11549;50.852;3.816;2023-02-07T09:09:23;26.25;;;16.20;;
22764;SDS011;11549;50.852;3.816;2023-02-07T09:11:52;27.08;;;16.80;;
22764;SDS011;11549;50.852;3.816;2023-02-07T09:14:20;24.92;;;17.05;;
22764;SDS011;11549;50.852;3.816;2023-02-07T09:16:48;23.05;;;16.33;;
22764;SDS011;11549;50.852;3.816;2023-02-07T09:19:17;24.83;;;16.63;;
22764;SDS011;11549;50.852;3.816;2023-02-07T09:21:47;24.10;;;17.02;;
22764;SDS011;11549;50.852;3.816;2023-02-07T09:24:16;23.60;;;16.67;;
22764;SDS011;11549;50.852;3.816;2023-02-07T09:26:44;23.55;;;15.75;;
22764;SDS011;11549;50.852;3.816;2023-02-07T09:29:13;22.52;;;16.20;;
22764;SDS011;11549;50.852;3.816;2023-02-07T09:31:42;28.05;;;16.95;;
22764;SDS011;11549;50.852;3.816;2023-02-07T09:34:11;28.80;;;17.40;;
22764;SDS011;11549;50.852;3.816;2023-02-07T09:36:39;25.60;;;16.75;;
22764;SDS011;11549;50.852;3.816;2023-02-07T09:39:10;24.25;;;16.13;;
22764;SDS011;11549;50.852;3.816;2023-02-07T09:41:41;22.42;;;14.93;;
22764;SDS011;11549;50.852;3.816;2023-02-07T09:44:19;21.60;;;14.80;;
22764;SDS011;11549;50.852;3.816;2023-02-07T09:46:53;22.20;;;15.52;;
22764;SDS011;11549;50.852;3.816;2023-02-07T09:49:29;21.48;;;16.00;;
22764;SDS011;11549;50.852;3.816;2023-02-07T09:52:03;22.92;;;15.93;;
22764;SDS011;11549;50.852;3.816;2023-02-07T09:54:38;21.05;;;15.00;;
22764;SDS011;11549;50.852;3.816;2023-02-07T09:57:11;23.70;;;15.65;;
22764;SDS011;11549;50.852;3.816;2023-02-07T09:59:46;23.33;;;15.50;;
22764;SDS011;11549;50.852;3.816;2023-02-07T10:02:19;24.73;;;15.85;;
22764;SDS011;11549;50.852;3.816;2023-02-07T10:04:51;24.27;;;16.05;;
22764;SDS011;11549;50.852;3.816;2023-02-07T10:07:24;25.77;;;16.55;;
22764;SDS011;11549;50.852;3.816;2023-02-07T10:09:54;28.55;;;16.55;;
22764;SDS011;11549;50.852;3.816;2023-02-07T10:15:29;22.48;;;16.55;;
22764;SDS011;11549;50.852;3.816;2023-02-07T10:18:18;23.38;;;16.17;;
22764;SDS011;11549;50.852;3.816;2023-02-07T10:21:11;26.05;;;16.90;;
22764;SDS011;11549;50.852;3.816;2023-02-07T10:23:49;25.02;;;16.77;;
22764;SDS011;11549;50.852;3.816;2023-02-07T10:26:35;23.75;;;17.13;;
22764;SDS011;11549;50.852;3.816;2023-02-07T10:29:19;23.83;;;16.95;;
22764;SDS011;11549;50.852;3.816;2023-02-07T10:32:07;23.42;;;15.88;;
22764;SDS011;11549;50.852;3.816;2023-02-07T10:34:40;27.38;;;17.60;;
22764;SDS011;11549;50.852;3.816;2023-02-07T10:37:16;22.42;;;16.25;;
22764;SDS011;11549;50.852;3.816;2023-02-07T10:39:48;25.60;;;17.08;;
22764;SDS011;11549;50.852;3.816;2023-02-07T10:42:25;26.35;;;16.85;;
22764;SDS011;11549;50.852;3.816;2023-02-07T10:44:55;25.30;;;17.67;;
22764;SDS011;11549;50.852;3.816;2023-02-07T10:47:23;27.33;;;18.55;;
22764;SDS011;11549;50.852;3.816;2023-02-07T10:49:52;27.75;;;19.33;;
22764;SDS011;11549;50.852;3.816;2023-02-07T10:52:26;28.38;;;19.33;;
22764;SDS011;11549;50.852;3.816;2023-02-07T10:54:57;27.95;;;18.95;;
22764;SDS011;11549;50.852;3.816;2023-02-07T10:57:28;24.33;;;15.90;;
22764;SDS011;11549;50.852;3.816;2023-02-07T10:59:58;26.10;;;16.52;;
22764;SDS011;11549;50.852;3.816;2023-02-07T11:02:34;26.10;;;17.95;;
22764;SDS011;11549;50.852;3.816;2023-02-07T11:05:37;25.67;;;16.27;;
22764;SDS011;11549;50.852;3.816;2023-02-07T11:10:55;25.45;;;16.38;;
22764;SDS011;11549;50.852;3.816;2023-02-07T11:13:27;22.83;;;15.60;;
22764;SDS011;11549;50.852;3.816;2023-02-07T11:15:59;25.48;;;17.02;;
22764;SDS011;11549;50.852;3.816;2023-02-07T11:18:35;24.77;;;16.25;;
22764;SDS011;11549;50.852;3.816;2023-02-07T11:21:21;26.92;;;17.77;;
22764;SDS011;11549;50.852;3.816;2023-02-07T11:23:53;22.33;;;15.52;;
22764;SDS011;11549;50.852;3.816;2023-02-07T11:26:24;20.55;;;14.90;;
22764;SDS011;11549;50.852;3.816;2023-02-07T11:31:41;21.50;;;14.15;;
22764;SDS011;11549;50.852;3.816;2023-02-07T11:34:38;21.15;;;13.68;;
22764;SDS011;11549;50.852;3.816;2023-02-07T11:37:19;19.60;;;12.20;;
22764;SDS011;11549;50.852;3.816;2023-02-07T11:39:52;17.77;;;12.02;;
22764;SDS011;11549;50.852;3.816;2023-02-07T11:42:22;20.13;;;12.85;;
22764;SDS011;11549;50.852;3.816;2023-02-07T11:44:54;22.30;;;13.75;;
22764;SDS011;11549;50.852;3.816;2023-02-07T11:47:23;18.20;;;12.68;;
22764;SDS011;11549;50.852;3.816;2023-02-07T11:49:55;17.85;;;12.73;;
22764;SDS011;11549;50.852;3.816;2023-02-07T11:52:25;21.58;;;13.30;;
22764;SDS011;11549;50.852;3.816;2023-02-07T11:54:55;21.27;;;13.20;;
22764;SDS011;11549;50.852;3.816;2023-02-07T11:57:27;22.45;;;14.77;;
22764;SDS011;11549;50.852;3.816;2023-02-07T12:00:02;20.70;;;13.63;;
22764;SDS011;11549;50.852;3.816;2023-02-07T12:02:33;23.23;;;13.65;;
22764;SDS011;11549;50.852;3.816;2023-02-07T12:05:07;19.33;;;12.35;;
22764;SDS011;11549;50.852;3.816;2023-02-07T12:07:47;12.82;;;9.23;;
22764;SDS011;11549;50.852;3.816;2023-02-07T12:10:20;19.92;;;12.05;;
22764;SDS011;11549;50.852;3.816;2023-02-07T12:12:53;18.95;;;12.18;;
22764;SDS011;11549;50.852;3.816;2023-02-07T12:15:27;19.30;;;12.98;;
22764;SDS011;11549;50.852;3.816;2023-02-07T12:18:00;18.65;;;11.23;;
22764;SDS011;11549;50.852;3.816;2023-02-07T12:20:32;18.00;;;9.97;;
22764;SDS011;11549;50.852;3.816;2023-02-07T12:23:04;16.70;;;10.88;;
22764;SDS011;11549;50.852;3.816;2023-02-07T12:26:00;18.58;;;11.63;;
22764;SDS011;11549;50.852;3.816;2023-02-07T12:28:33;19.45;;;10.60;;
22764;SDS011;11549;50.852;3.816;2023-02-07T12:31:12;16.58;;;10.38;;
22764;SDS011;11549;50.852;3.816;2023-02-07T12:33:48;10.82;;;7.00;;
22764;SDS011;11549;50.852;3.816;2023-02-07T12:36:22;12.45;;;8.18;;
22764;SDS011;11549;50.852;3.816;2023-02-07T12:38:55;14.38;;;9.65;;
22764;SDS011;11549;50.852;3.816;2023-02-07T12:41:29;19.77;;;12.40;;
22764;SDS011;11549;50.852;3.816;2023-02-07T12:44:03;19.85;;;12.52;;
22764;SDS011;11549;50.852;3.816;2023-02-07T12:46:40;18.52;;;12.13;;
22764;SDS011;11549;50.852;3.816;2023-02-07T12:49:22;17.00;;;11.50;;
22764;SDS011;11549;50.852;3.816;2023-02-07T12:52:13;18.13;;;11.80;;
22764;SDS011;11549;50.852;3.816;2023-02-07T12:54:54;18.88;;;12.02;;
22764;SDS011;11549;50.852;3.816;2023-02-07T13:00:08;20.80;;;13.38;;
22764;SDS011;11549;50.852;3.816;2023-02-07T13:02:48;22.02;;;13.32;;
22764;SDS011;11549;50.852;3.816;2023-02-07T13:05:32;24.88;;;15.40;;
22764;SDS011;11549;50.852;3.816;2023-02-07T13:08:11;28.75;;;17.40;;
22764;SDS011;11549;50.852;3.816;2023-02-07T13:10:47;28.73;;;16.83;;
22764;SDS011;11549;50.852;3.816;2023-02-07T13:13:24;23.40;;;15.63;;
22764;SDS011;11549;50.852;3.816;2023-02-07T13:15:59;26.02;;;16.35;;
22764;SDS011;11549;50.852;3.816;2023-02-07T13:18:35;24.45;;;16.65;;
22764;SDS011;11549;50.852;3.816;2023-02-07T13:21:10;22.92;;;15.75;;
22764;SDS011;11549;50.852;3.816;2023-02-07T13:23:47;24.08;;;15.40;;
22764;SDS011;11549;50.852;3.816;2023-02-07T13:26:17;22.98;;;15.10;;
22764;SDS011;11549;50.852;3.816;2023-02-07T13:28:48;22.85;;;14.90;;
22764;SDS011;11549;50.852;3.816;2023-02-07T13:31:20;21.52;;;15.13;;
22764;SDS011;11549;50.852;3.816;2023-02-07T13:33:54;22.85;;;15.38;;
22764;SDS011;11549;50.852;3.816;2023-02-07T13:36:23;19.63;;;13.88;;
22764;SDS011;11549;50.852;3.816;2023-02-07T13:39:00;22.23;;;15.15;;
22764;SDS011;11549;50.852;3.816;2023-02-07T13:41:41;20.98;;;13.65;;
22764;SDS011;11549;50.852;3.816;2023-02-07T13:44:19;21.77;;;13.23;;
22764;SDS011;11549;50.852;3.816;2023-02-07T13:47:07;20.98;;;13.65;;
22764;SDS011;11549;50.852;3.816;2023-02-07T13:49:47;19.98;;;12.55;;
22764;SDS011;11549;50.852;3.816;2023-02-07T13:52:22;17.98;;;12.63;;
22764;SDS011;11549;50.852;3.816;2023-02-07T13:55:01;18.10;;;12.95;;
22764;SDS011;11549;50.852;3.816;2023-02-07T13:57:38;19.77;;;12.88;;
22764;SDS011;11549;50.852;3.816;2023-02-07T14:00:26;21.65;;;13.27;;
22764;SDS011;11549;50.852;3.816;2023-02-07T14:02:58;20.83;;;13.70;;
22764;SDS011;11549;50.852;3.816;2023-02-07T14:05:29;24.33;;;15.45;;
22764;SDS011;11549;50.852;3.816;2023-02-07T14:08:00;25.38;;;15.55;;
22764;SDS011;11549;50.852;3.816;2023-02-07T14:10:35;27.15;;;16.33;;
22764;SDS011;11549;50.852;3.816;2023-02-07T14:13:27;31.15;;;19.65;;
22764;SDS011;11549;50.852;3.816;2023-02-07T14:16:02;31.00;;;18.90;;
22764;SDS011;11549;50.852;3.816;2023-02-07T14:18:44;33.83;;;20.00;;
22764;SDS011;11549;50.852;3.816;2023-02-07T14:21:30;30.95;;;20.13;;
22764;SDS011;11549;50.852;3.816;2023-02-07T14:24:20;33.45;;;20.33;;
22764;SDS011;11549;50.852;3.816;2023-02-07T14:27:01;25.05;;;18.50;;
22764;SDS011;11549;50.852;3.816;2023-02-07T14:29:51;30.05;;;19.25;;
22764;SDS011;11549;50.852;3.816;2023-02-07T14:32:24;29.17;;;19.10;;
22764;SDS011;11549;50.852;3.816;2023-02-07T14:35:03;27.00;;;17.52;;
22764;SDS011;11549;50.852;3.816;2023-02-07T14:37:38;28.08;;;18.02;;
22764;SDS011;11549;50.852;3.816;2023-02-07T14:40:17;29.05;;;18.33;;
22764;SDS011;11549;50.852;3.816;2023-02-07T14:42:54;27.92;;;17.77;;
22764;SDS011;11549;50.852;3.816;2023-02-07T14:45:27;27.88;;;17.20;;
22764;SDS011;11549;50.852;3.816;2023-02-07T14:47:57;28.23;;;17.25;;
22764;SDS011;11549;50.852;3.816;2023-02-07T14:50:27;27.50;;;17.30;;
22764;SDS011;11549;50.852;3.816;2023-02-07T14:53:00;29.33;;;18.25;;
22764;SDS011;11549;50.852;3.816;2023-02-07T14:55:33;27.27;;;17.23;;
22764;SDS011;11549;50.852;3.816;2023-02-07T14:58:07;30.40;;;18.65;;
22764;SDS011;11549;50.852;3.816;2023-02-07T15:00:47;30.73;;;19.10;;
22764;SDS011;11549;50.852;3.816;2023-02-07T15:03:18;29.17;;;17.40;;
22764;SDS011;11549;50.852;3.816;2023-02-07T15:05:48;28.45;;;17.08;;
22764;SDS011;11549;50.852;3.816;2023-02-07T15:08:19;26.00;;;17.20;;